Time;durP1;ratioP1;P1;durP2;ratioP2;P2;SDS_P1;SDS_P2;PMS_P1;PMS_P2;Temp;Humidity;BMP_temperature;BMP_pressure;BME280_temperature;BME280_humidity;BME280_pressure;Samples;Min_cycle;Max_cycle;Signal;HPM_P1;HPM_P2
2021/08/02 00:01:51;;;;;;;7.05;3.95;;;18.50;99.90;;;;;;5015571;28;20223;-79
2021/08/02 00:04:20;;;;;;;10.10;3.58;;;18.50;99.90;;;;;;5014465;28;20164;-79
2021/08/02 00:06:57;;;;;;;5.75;3.83;;;18.40;99.90;;;;;;5015934;28;20267;-79
2021/08/02 00:09:31;;;;;;;4.45;4.05;;;18.20;99.90;;;;;;5015773;28;20169;-79
2021/08/02 00:12:03;;;;;;;4.20;3.80;;;18.20;99.90;;;;;;5015411;28;20204;-79
2021/08/02 00:14:29;;;;;;;4.00;3.70;;;18.30;99.90;;;;;;5015027;28;20165;-78
2021/08/02 00:16:55;;;;;;;8.10;4.47;;;18.30;99.90;;;;;;5013647;28;20553;-78
2021/08/02 00:19:23;;;;;;;4.35;3.95;;;18.50;99.90;;;;;;5015234;28;20172;-79
2021/08/02 00:21:49;;;;;;;6.97;4.40;;;18.60;99.90;;;;;;5014172;28;20176;-79
2021/08/02 00:24:17;;;;;;;5.72;4.22;;;18.40;99.90;;;;;;5015443;28;20179;-79
2021/08/02 00:26:43;;;;;;;6.50;4.40;;;18.10;99.90;;;;;;5015420;28;20192;-79
2021/08/02 00:29:09;;;;;;;8.38;4.00;;;18.20;99.90;;;;;;5014141;28;20227;-79
2021/08/02 00:31:36;;;;;;;4.85;3.47;;;18.30;99.90;;;;;;5015155;28;20204;-78
2021/08/02 00:34:03;;;;;;;3.50;2.70;;;18.20;99.90;;;;;;5014878;28;20192;-79
2021/08/02 00:36:54;;;;;;;5.93;2.83;;;18.20;99.90;;;;;;5014429;28;20208;-78
2021/08/02 00:40:10;;;;;;;8.25;3.45;;;18.00;99.90;;;;;;5013350;28;20268;-79
2021/08/02 00:43:05;;;;;;;6.63;3.83;;;18.30;99.90;;;;;;4990788;28;20185;-78
2021/08/02 00:45:34;;;;;;;6.45;4.10;;;18.30;99.90;;;;;;4991063;28;20673;-78
2021/08/02 00:48:07;;;;;;;5.57;3.33;;;18.40;99.90;;;;;;5005197;28;20184;-79
2021/08/02 00:50:48;;;;;;;4.32;3.85;;;18.20;99.90;;;;;;5012916;28;20188;-80
2021/08/02 00:53:21;;;;;;;15.73;3.75;;;18.30;99.90;;;;;;5012022;28;20656;-79
2021/08/02 00:55:54;;;;;;;3.45;2.78;;;18.30;99.90;;;;;;5014471;28;20192;-79
2021/08/02 00:58:22;;;;;;;5.75;3.38;;;18.30;99.90;;;;;;5014721;28;20164;-79
2021/08/02 01:00:48;;;;;;;7.75;3.78;;;18.40;99.90;;;;;;5014597;28;20169;-79
2021/08/02 01:03:16;;;;;;;3.45;3.15;;;18.20;99.90;;;;;;5014465;28;20173;-79
2021/08/02 01:05:45;;;;;;;7.70;3.63;;;18.30;99.90;;;;;;5014761;28;20188;-78
2021/08/02 01:08:12;;;;;;;6.25;3.67;;;18.20;99.90;;;;;;5014310;28;20172;-79
2021/08/02 01:10:46;;;;;;;5.95;3.85;;;18.10;99.90;;;;;;5014461;28;20169;-79
2021/08/02 01:13:13;;;;;;;5.65;3.63;;;17.90;99.90;;;;;;5014349;28;20179;-79
2021/08/02 01:15:40;;;;;;;5.72;4.32;;;17.90;99.90;;;;;;5013062;28;20185;-79
2021/08/02 01:18:09;;;;;;;7.47;3.92;;;17.60;99.90;;;;;;5014420;28;20175;-79
2021/08/02 01:20:41;;;;;;;6.82;3.60;;;17.60;99.90;;;;;;5013230;28;20242;-79
2021/08/02 01:23:09;;;;;;;8.73;4.00;;;17.70;99.90;;;;;;5014580;28;20169;-79
2021/08/02 01:25:37;;;;;;;5.03;3.47;;;17.50;99.90;;;;;;5014413;28;20234;-79
2021/08/02 01:28:15;;;;;;;3.67;2.60;;;17.50;99.90;;;;;;5013043;28;20263;-79
2021/08/02 01:30:45;;;;;;;6.00;3.88;;;17.50;99.90;;;;;;5013734;28;20621;-79
2021/08/02 01:33:12;;;;;;;3.70;3.40;;;17.40;99.90;;;;;;5013403;28;20521;-79
2021/08/02 01:35:39;;;;;;;5.95;3.47;;;17.20;99.90;;;;;;5012522;28;20200;-79
2021/08/02 01:38:05;;;;;;;6.45;5.03;;;17.00;99.90;;;;;;5012940;28;20541;-78
2021/08/02 01:40:32;;;;;;;4.85;4.32;;;16.90;99.90;;;;;;5012903;28;20172;-79
2021/08/02 01:43:01;;;;;;;4.75;3.65;;;17.00;99.90;;;;;;5013975;28;20219;-78
2021/08/02 01:45:27;;;;;;;5.22;4.35;;;17.00;99.90;;;;;;5013745;28;20185;-79
2021/08/02 01:48:07;;;;;;;7.13;4.43;;;16.90;99.90;;;;;;5013770;28;20171;-79
2021/08/02 01:50:54;;;;;;;7.03;4.63;;;17.10;99.90;;;;;;5012903;28;20259;-78
2021/08/02 01:53:28;;;;;;;5.85;3.95;;;17.50;99.90;;;;;;5012611;28;20183;-79
2021/08/02 01:56:11;;;;;;;12.63;5.10;;;17.60;99.90;;;;;;5013983;28;20193;-79
2021/08/02 01:58:48;;;;;;;6.60;6.00;;;17.70;99.90;;;;;;5013407;28;20572;-78
2021/08/02 02:01:15;;;;;;;11.35;6.13;;;17.70;99.90;;;;;;5013759;28;20629;-79
2021/08/02 02:03:41;;;;;;;8.38;5.45;;;17.80;99.90;;;;;;5012214;28;20168;-78
2021/08/02 02:06:12;;;;;;;12.35;5.53;;;17.90;99.90;;;;;;5013214;28;20196;-78
2021/08/02 02:08:42;;;;;;;16.25;5.75;;;17.90;99.90;;;;;;5012191;28;20196;-78
2021/08/02 02:11:09;;;;;;;8.23;4.93;;;17.90;99.90;;;;;;5012467;28;20219;-79
2021/08/02 02:13:40;;;;;;;7.50;4.97;;;17.70;99.90;;;;;;5012036;28;20182;-79
2021/08/02 02:16:07;;;;;;;13.85;5.05;;;17.60;99.90;;;;;;5013221;28;20199;-79
2021/08/02 02:18:38;;;;;;;5.07;4.60;;;17.40;99.90;;;;;;5013190;28;20201;-79
2021/08/02 02:21:06;;;;;;;12.23;4.63;;;17.40;99.90;;;;;;5013056;28;20168;-79
2021/08/02 02:23:32;;;;;;;9.68;5.20;;;17.40;99.90;;;;;;5011981;28;20521;-79
2021/08/02 02:25:59;;;;;;;9.23;4.57;;;17.40;99.90;;;;;;5013344;28;20252;-79
2021/08/02 02:28:25;;;;;;;9.13;4.88;;;17.40;99.90;;;;;;5013187;28;20574;-80
2021/08/02 02:30:53;;;;;;;7.47;5.03;;;17.50;99.90;;;;;;5013101;28;20171;-79
2021/08/02 02:33:19;;;;;;;13.57;5.68;;;17.60;99.90;;;;;;5013493;28;20629;-78
2021/08/02 02:35:47;;;;;;;5.47;4.93;;;17.70;99.90;;;;;;5013214;28;20561;-78
2021/08/02 02:38:15;;;;;;;5.38;4.68;;;17.80;99.90;;;;;;5013164;28;20633;-78
2021/08/02 02:40:43;;;;;;;5.68;4.28;;;17.60;99.90;;;;;;5013039;28;20168;-78
2021/08/02 02:43:11;;;;;;;5.65;4.03;;;17.60;99.90;;;;;;5012734;28;20172;-79
2021/08/02 02:45:38;;;;;;;8.55;4.32;;;17.60;99.90;;;;;;5012661;28;20232;-79
2021/08/02 02:48:05;;;;;;;8.10;4.45;;;17.70;99.90;;;;;;5012386;28;20175;-78
2021/08/02 02:50:33;;;;;;;6.05;3.97;;;17.70;99.90;;;;;;5011899;28;20234;-79
2021/08/02 02:53:01;;;;;;;5.40;4.80;;;17.80;99.90;;;;;;5012801;28;20200;-79
2021/08/02 02:55:29;;;;;;;7.18;4.75;;;17.80;99.90;;;;;;5011339;28;20214;-78
2021/08/02 02:57:55;;;;;;;6.00;4.47;;;17.70;99.90;;;;;;5012647;28;20174;-79
2021/08/02 03:00:21;;;;;;;6.90;4.20;;;17.70;99.90;;;;;;5012531;28;20164;-78
2021/08/02 03:02:50;;;;;;;7.43;4.63;;;17.80;99.90;;;;;;5012632;28;20168;-78
2021/08/02 03:05:18;;;;;;;4.78;4.38;;;17.90;99.90;;;;;;5012760;28;20584;-79
2021/08/02 03:07:46;;;;;;;8.18;3.85;;;18.00;99.90;;;;;;5012850;28;20203;-79
2021/08/02 03:10:13;;;;;;;13.23;4.50;;;18.00;99.90;;;;;;5012566;28;20221;-79
2021/08/02 03:12:38;;;;;;;8.02;3.53;;;17.80;99.90;;;;;;5016642;28;20245;-79
2021/08/02 03:15:04;;;;;;;7.85;4.15;;;17.80;99.90;;;;;;5016742;28;20203;-79
2021/08/02 03:17:31;;;;;;;6.88;4.20;;;17.70;99.90;;;;;;5016542;28;20161;-79
2021/08/02 03:19:56;;;;;;;11.18;4.57;;;17.70;99.90;;;;;;5016414;28;20172;-78
2021/08/02 03:22:24;;;;;;;4.88;4.22;;;17.70;99.90;;;;;;5016512;28;20613;-79
2021/08/02 03:25:04;;;;;;;4.63;4.22;;;17.80;99.90;;;;;;5016457;28;20268;-80
2021/08/02 03:27:41;;;;;;;6.18;4.30;;;18.10;99.90;;;;;;5016635;28;20173;-78
2021/08/02 03:30:08;;;;;;;7.35;4.80;;;18.10;99.90;;;;;;5016591;28;20189;-78
2021/08/02 03:32:35;;;;;;;8.30;4.68;;;18.00;99.90;;;;;;5016143;28;20277;-79
2021/08/02 03:35:06;;;;;;;9.18;4.95;;;17.90;99.90;;;;;;5015950;28;20172;-79
2021/08/02 03:37:32;;;;;;;7.22;4.43;;;17.60;99.90;;;;;;5016301;28;20588;-79
2021/08/02 03:40:01;;;;;;;5.18;4.68;;;17.60;99.90;;;;;;5014833;28;20179;-79
2021/08/02 03:42:28;;;;;;;9.23;4.57;;;17.50;99.90;;;;;;5016235;28;20247;-79
2021/08/02 03:44:54;;;;;;;5.25;4.65;;;17.10;99.90;;;;;;5016176;28;20161;-79
2021/08/02 03:47:20;;;;;;;6.00;4.35;;;17.00;99.90;;;;;;5015796;28;20574;-78
2021/08/02 03:49:47;;;;;;;6.03;4.80;;;16.90;99.90;;;;;;5016037;28;20179;-79
2021/08/02 03:52:12;;;;;;;7.95;4.57;;;16.70;99.90;;;;;;5015923;28;20208;-79
2021/08/02 03:54:38;;;;;;;7.50;4.80;;;16.70;99.90;;;;;;5015784;28;20172;-79
2021/08/02 03:57:05;;;;;;;7.13;4.53;;;16.60;99.90;;;;;;5015982;28;20251;-79
2021/08/02 03:59:30;;;;;;;7.50;4.70;;;16.70;99.90;;;;;;5015882;28;20256;-80
2021/08/02 04:01:56;;;;;;;7.47;5.18;;;16.80;99.90;;;;;;5014853;28;20247;-80
2021/08/02 04:04:22;;;;;;;13.82;5.25;;;16.70;99.90;;;;;;5015464;28;20169;-78
2021/08/02 04:06:48;;;;;;;12.20;6.25;;;16.80;99.90;;;;;;5014225;28;20199;-78
2021/08/02 04:09:14;;;;;;;7.25;6.28;;;16.80;99.90;;;;;;5015633;28;20223;-79
2021/08/02 04:11:41;;;;;;;8.90;6.03;;;16.70;99.90;;;;;;5015496;28;20258;-79
2021/08/02 04:14:07;;;;;;;8.07;4.93;;;16.90;99.90;;;;;;5015916;28;20157;-80
2021/08/02 04:16:33;;;;;;;6.55;5.28;;;17.00;99.90;;;;;;5015432;28;20207;-79
2021/08/02 04:18:59;;;;;;;6.05;5.40;;;17.00;99.90;;;;;;5013934;28;20160;-79
2021/08/02 04:21:24;;;;;;;7.80;5.93;;;17.10;99.90;;;;;;5014195;28;20528;-79
2021/08/02 04:23:50;;;;;;;8.65;5.53;;;17.10;99.90;;;;;;5015358;28;20177;-77
2021/08/02 04:26:16;;;;;;;6.20;4.47;;;17.20;99.90;;;;;;5015144;28;20215;-79
2021/08/02 04:28:45;;;;;;;8.43;5.57;;;17.10;99.90;;;;;;5014348;28;20176;-78
2021/08/02 04:31:11;;;;;;;6.32;4.68;;;17.10;99.90;;;;;;5015139;28;20192;-79
2021/08/02 04:33:37;;;;;;;8.80;5.25;;;17.30;99.90;;;;;;5015020;28;20176;-79
2021/08/02 04:36:04;;;;;;;10.60;5.18;;;17.40;99.90;;;;;;5015070;28;20699;-80
2021/08/02 04:38:30;;;;;;;11.13;5.40;;;17.40;99.90;;;;;;5013409;28;20180;-78
2021/08/02 04:40:56;;;;;;;9.45;5.45;;;17.40;99.90;;;;;;5014049;28;20176;-80
2021/08/02 04:43:22;;;;;;;10.07;5.65;;;17.30;99.90;;;;;;5014854;28;20251;-79
2021/08/02 04:45:47;;;;;;;7.88;5.50;;;17.30;99.90;;;;;;5014985;28;20180;-80
2021/08/02 04:48:13;;;;;;;8.52;5.78;;;17.30;99.90;;;;;;5013657;28;20223;-78
2021/08/02 04:50:39;;;;;;;5.95;5.40;;;17.20;99.90;;;;;;5015285;28;20169;-78
2021/08/02 04:53:04;;;;;;;9.82;6.05;;;17.00;99.90;;;;;;5014637;28;20208;-79
2021/08/02 04:55:30;;;;;;;7.15;6.00;;;17.00;99.90;;;;;;5014895;28;20188;-79
2021/08/02 04:57:56;;;;;;;8.98;6.18;;;17.20;99.90;;;;;;5014899;28;20248;-78
2021/08/02 05:00:22;;;;;;;8.35;4.57;;;17.20;99.90;;;;;;5014662;28;20676;-79
2021/08/02 05:02:47;;;;;;;6.72;4.57;;;17.10;99.90;;;;;;5014414;28;20528;-79
2021/08/02 05:05:13;;;;;;;8.32;4.25;;;16.80;99.90;;;;;;5014737;28;20198;-78
2021/08/02 05:07:39;;;;;;;10.48;4.32;;;16.90;99.90;;;;;;5014957;28;20172;-79
2021/08/02 05:10:05;;;;;;;6.20;3.92;;;17.00;99.90;;;;;;5013606;28;20247;-81
2021/08/02 05:12:31;;;;;;;9.73;5.03;;;17.00;99.90;;;;;;5014656;28;20204;-78
2021/08/02 05:15:06;;;;;;;9.38;4.43;;;16.80;99.90;;;;;;5014367;28;20505;-77
2021/08/02 05:17:31;;;;;;;4.60;4.10;;;16.60;99.90;;;;;;5014700;28;20164;-80
2021/08/02 05:19:57;;;;;;;5.68;3.10;;;16.50;99.90;;;;;;5013615;28;20180;-79
2021/08/02 05:22:22;;;;;;;5.40;4.18;;;16.50;99.90;;;;;;5015284;28;20160;-77
2021/08/02 05:24:48;;;;;;;5.90;3.90;;;16.50;99.90;;;;;;5016870;28;20193;-79
2021/08/02 05:27:14;;;;;;;6.43;3.78;;;16.20;99.90;;;;;;5013090;28;20279;-82
2021/08/02 05:29:39;;;;;;;5.03;2.55;;;15.90;99.90;;;;;;5014514;28;20260;-79
2021/08/02 05:32:05;;;;;;;4.90;3.35;;;16.00;99.90;;;;;;5013987;28;20542;-79
2021/08/02 05:34:31;;;;;;;9.65;3.88;;;15.60;99.90;;;;;;5013150;28;20222;-78
2021/08/02 05:36:56;;;;;;;4.82;3.67;;;15.60;99.90;;;;;;5014081;28;20200;-79
2021/08/02 05:39:22;;;;;;;5.60;3.17;;;15.70;99.90;;;;;;5012886;28;20632;-79
2021/08/02 05:41:48;;;;;;;5.97;3.53;;;15.70;99.90;;;;;;5012556;28;20243;-78
2021/08/02 05:44:14;;;;;;;8.25;3.78;;;15.80;99.90;;;;;;5013886;28;20271;-80
2021/08/02 05:46:40;;;;;;;4.97;3.63;;;15.80;99.90;;;;;;5013671;28;20259;-78
2021/08/02 05:49:06;;;;;;;7.10;3.50;;;16.00;99.90;;;;;;5045794;28;20172;-79
2021/08/02 05:51:32;;;;;;;7.32;3.83;;;16.00;99.90;;;;;;5013146;28;20208;-80
2021/08/02 05:53:57;;;;;;;4.72;3.88;;;15.80;99.90;;;;;;5013356;28;20171;-79
2021/08/02 05:56:23;;;;;;;8.10;3.58;;;15.60;99.90;;;;;;5013256;28;20271;-80
2021/08/02 05:58:49;;;;;;;8.60;4.05;;;15.60;99.90;;;;;;5012155;28;20306;-79
2021/08/02 06:01:15;;;;;;;7.40;3.15;;;15.80;99.90;;;;;;5011918;28;20195;-80
2021/08/02 06:03:40;;;;;;;6.18;4.00;;;15.50;99.90;;;;;;5013339;28;20160;-80
2021/08/02 06:06:06;;;;;;;5.35;3.60;;;15.50;99.90;;;;;;5013090;28;20272;-81
2021/08/02 06:08:36;;;;;;;6.25;3.00;;;15.50;99.90;;;;;;5011953;28;20164;-81
2021/08/02 06:11:02;;;;;;;4.72;3.30;;;15.50;99.90;;;;;;5013252;28;20184;-82
2021/08/02 06:13:28;;;;;;;5.88;3.40;;;15.60;99.90;;;;;;5012501;28;20860;-79
2021/08/02 06:15:53;;;;;;;10.05;3.42;;;15.80;99.90;;;;;;5011885;28;20191;-80
2021/08/02 06:18:19;;;;;;;4.75;3.90;;;16.00;99.90;;;;;;5011661;28;20212;-79
2021/08/02 06:20:44;;;;;;;7.05;3.67;;;16.10;99.90;;;;;;5012970;28;20532;-79
2021/08/02 06:23:10;;;;;;;7.70;4.20;;;16.10;99.90;;;;;;5011299;28;20168;-81
2021/08/02 06:25:36;;;;;;;11.88;4.25;;;15.60;99.90;;;;;;5011242;28;20224;-79
2021/08/02 06:28:01;;;;;;;4.45;4.05;;;15.60;99.90;;;;;;5044253;28;20271;-80
2021/08/02 06:30:27;;;;;;;6.55;4.13;;;15.70;99.90;;;;;;5011312;28;20172;-80
2021/08/02 06:32:52;;;;;;;6.05;4.22;;;15.80;99.90;;;;;;5011371;28;20585;-79
2021/08/02 06:35:18;;;;;;;8.43;4.57;;;16.00;99.90;;;;;;5011002;28;20727;-79
2021/08/02 06:37:44;;;;;;;8.60;4.90;;;16.00;99.90;;;;;;5011007;28;20177;-79
2021/08/02 06:40:14;;;;;;;10.80;4.53;;;16.10;99.90;;;;;;5012540;28;20180;-80
2021/08/02 06:42:40;;;;;;;7.15;4.68;;;16.20;99.90;;;;;;5011432;28;20233;-79
2021/08/02 06:45:07;;;;;;;8.18;5.13;;;16.30;99.90;;;;;;5010503;28;20184;-78
2021/08/02 06:47:32;;;;;;;8.45;4.88;;;16.40;99.90;;;;;;5012060;28;20248;-79
2021/08/02 06:49:58;;;;;;;8.00;4.72;;;16.30;99.90;;;;;;5012420;28;20165;-79
2021/08/02 06:52:24;;;;;;;8.90;4.90;;;16.40;99.90;;;;;;5012396;28;20212;-79
2021/08/02 06:54:49;;;;;;;6.25;4.03;;;16.20;99.90;;;;;;5012808;28;20165;-79
2021/08/02 06:57:15;;;;;;;8.02;3.90;;;16.30;99.90;;;;;;5010863;28;20184;-79
2021/08/02 06:59:41;;;;;;;9.95;4.38;;;16.20;99.90;;;;;;5012255;28;20991;-80
2021/08/02 07:02:06;;;;;;;6.88;4.47;;;16.00;99.90;;;;;;5012117;28;20582;-82
2021/08/02 07:04:32;;;;;;;4.32;3.05;;;16.00;99.90;;;;;;5011557;28;20164;-81
2021/08/02 07:06:58;;;;;;;5.22;3.35;;;15.90;99.90;;;;;;5012451;28;20262;-81
2021/08/02 07:09:23;;;;;;;4.45;3.03;;;16.10;99.90;;;;;;5011503;28;20540;-82
2021/08/02 07:11:49;;;;;;;7.22;2.20;;;16.00;99.90;;;;;;5011021;28;20215;-83
2021/08/02 07:14:15;;;;;;;3.50;3.08;;;15.90;99.90;;;;;;5011462;28;20639;-82
2021/08/02 07:16:41;;;;;;;7.43;3.10;;;16.00;99.90;;;;;;5011137;28;20188;-82
2021/08/02 07:19:06;;;;;;;3.95;2.63;;;16.10;99.90;;;;;;5011981;28;20169;-80
2021/08/02 07:21:32;;;;;;;4.22;2.85;;;16.00;99.90;;;;;;5012185;28;20176;-80
2021/08/02 07:23:58;;;;;;;5.60;3.22;;;15.80;99.90;;;;;;5011626;28;20164;-79
2021/08/02 07:26:24;;;;;;;5.63;2.78;;;16.10;99.90;;;;;;5010503;28;20250;-79
2021/08/02 07:28:50;;;;;;;6.00;2.72;;;16.10;99.90;;;;;;5010659;28;20176;-81
2021/08/02 07:31:15;;;;;;;3.72;3.22;;;16.20;99.90;;;;;;5010783;28;20607;-79
2021/08/02 07:33:42;;;;;;;7.20;3.40;;;16.40;99.90;;;;;;5010188;28;20181;-80
2021/08/02 07:36:08;;;;;;;6.38;3.55;;;16.40;99.90;;;;;;5011438;28;20291;-80
2021/08/02 07:38:35;;;;;;;3.25;2.65;;;16.50;99.90;;;;;;5012526;28;21059;-79
2021/08/02 07:41:01;;;;;;;5.80;2.97;;;16.70;99.90;;;;;;5007852;28;20172;-78
2021/08/02 07:43:27;;;;;;;3.60;1.80;;;16.80;99.90;;;;;;5009911;28;20223;-80
2021/08/02 07:45:53;;;;;;;3.00;1.77;;;16.70;99.90;;;;;;5011266;28;20594;-79
2021/08/02 07:48:18;;;;;;;3.20;2.30;;;16.70;99.90;;;;;;5011081;28;20168;-81
2021/08/02 07:50:44;;;;;;;2.40;1.65;;;16.70;99.90;;;;;;5010768;28;20231;-80
2021/08/02 07:53:10;;;;;;;3.53;1.70;;;16.60;99.90;;;;;;5010895;28;20215;-80
2021/08/02 07:55:36;;;;;;;3.20;1.58;;;16.40;99.90;;;;;;5009565;28;20192;-82
2021/08/02 07:58:01;;;;;;;5.10;2.10;;;16.40;99.90;;;;;;5014268;28;20173;-80
2021/08/02 08:00:27;;;;;;;2.10;1.52;;;16.60;99.90;;;;;;5014422;28;20177;-80
2021/08/02 08:02:53;;;;;;;2.10;1.45;;;16.80;99.90;;;;;;5013524;28;20176;-80
2021/08/02 08:05:18;;;;;;;2.58;1.20;;;16.70;99.90;;;;;;5015994;28;20184;-84
2021/08/02 08:07:52;;;;;;;2.05;1.65;;;16.60;99.90;;;;;;5026957;28;20334;-81
2021/08/02 08:10:20;;;;;;;8.77;1.90;;;16.60;99.90;;;;;;5027717;28;20176;-82
2021/08/02 08:12:46;;;;;;;5.50;2.10;;;16.80;99.90;;;;;;5030315;28;20204;-82
2021/08/02 08:15:13;;;;;;;2.30;2.10;;;17.10;99.90;;;;;;5017557;28;20671;-82
2021/08/02 08:17:39;;;;;;;7.53;2.30;;;17.30;99.90;;;;;;5016499;28;20167;-83
2021/08/02 08:20:07;;;;;;;2.95;2.72;;;17.50;99.90;;;;;;5015720;28;20164;-83
2021/08/02 08:22:33;;;;;;;2.30;2.00;;;17.80;99.90;;;;;;5015024;28;20239;-87
2021/08/02 08:24:58;;;;;;;4.60;2.05;;;17.80;99.90;;;;;;5015698;28;20636;-83
2021/08/02 08:27:24;;;;;;;2.58;2.38;;;18.00;99.90;;;;;;5013498;28;20187;-90
2021/08/02 08:29:49;;;;;;;6.55;2.30;;;18.00;99.90;;;;;;5015073;28;20200;-80
2021/08/02 08:32:15;;;;;;;4.07;2.20;;;17.80;99.90;;;;;;5014860;28;20207;-79
2021/08/02 08:34:41;;;;;;;4.55;2.50;;;17.80;99.90;;;;;;5015014;28;20222;-82
2021/08/02 08:37:07;;;;;;;2.17;1.90;;;17.90;99.90;;;;;;5014675;28;20193;-82
2021/08/02 08:39:32;;;;;;;5.53;2.60;;;17.70;99.90;;;;;;5015189;28;20187;-81
2021/08/02 08:41:58;;;;;;;6.10;2.10;;;17.50;99.90;;;;;;5015170;28;20192;-81
2021/08/02 08:44:29;;;;;;;3.67;2.42;;;17.50;99.90;;;;;;5016066;28;20724;-81
2021/08/02 08:46:55;;;;;;;4.68;2.72;;;17.90;99.90;;;;;;5016380;28;20303;-84
2021/08/02 08:49:20;;;;;;;2.83;2.25;;;18.10;99.90;;;;;;5015682;28;20621;-82
2021/08/02 08:51:47;;;;;;;3.03;2.55;;;18.00;99.90;;;;;;5016957;28;20222;-82
2021/08/02 08:54:13;;;;;;;5.53;2.45;;;18.30;99.90;;;;;;5015866;28;20200;-81
2021/08/02 08:56:39;;;;;;;4.15;2.60;;;18.60;99.90;;;;;;5014639;28;20664;-84
2021/08/02 08:59:05;;;;;;;3.47;3.10;;;18.70;99.90;;;;;;5014071;28;20172;-85
2021/08/02 09:01:31;;;;;;;4.47;2.45;;;18.50;99.90;;;;;;5014730;28;20191;-80
2021/08/02 09:03:58;;;;;;;3.72;2.50;;;18.30;99.90;;;;;;5016265;28;20181;-80
2021/08/02 09:06:25;;;;;;;3.78;2.35;;;18.30;99.90;;;;;;5014592;28;20271;-82
2021/08/02 09:08:51;;;;;;;4.00;3.00;;;18.30;99.90;;;;;;5012751;28;20636;-82
2021/08/02 09:11:22;;;;;;;5.53;2.60;;;18.60;99.90;;;;;;5014951;28;20212;-81
2021/08/02 09:13:48;;;;;;;4.25;2.75;;;18.90;99.90;;;;;;5013290;28;20169;-80
2021/08/02 09:16:25;;;;;;;5.75;2.95;;;19.40;99.90;;;;;;4999610;28;20201;-80
2021/08/02 09:19:08;;;;;;;7.60;2.55;;;19.60;99.90;;;;;;5017074;28;20172;-83
2021/08/02 09:21:50;;;;;;;3.22;2.80;;;19.80;99.90;;;;;;5017457;28;20172;-80
2021/08/02 09:24:29;;;;;;;2.85;2.35;;;19.60;99.90;;;;;;5021882;28;20176;-83
2021/08/02 09:26:55;;;;;;;6.20;2.65;;;19.80;99.90;;;;;;5019259;28;20704;-82
2021/08/02 09:29:33;;;;;;;5.50;3.08;;;19.90;99.90;;;;;;5019439;28;20243;-82
2021/08/02 09:32:00;;;;;;;4.18;2.30;;;20.00;99.90;;;;;;5020324;28;20204;-81
2021/08/02 09:34:26;;;;;;;7.20;2.53;;;20.30;99.90;;;;;;5015348;28;20165;-81
2021/08/02 09:36:57;;;;;;;5.47;2.30;;;20.90;99.90;;;;;;5015741;28;20625;-82
2021/08/02 09:39:30;;;;;;;4.15;2.75;;;20.60;99.90;;;;;;5013641;28;20172;-82
2021/08/02 09:42:05;;;;;;;5.20;2.33;;;20.80;99.90;;;;;;5013662;28;20208;-82
2021/08/02 09:44:31;;;;;;;5.90;2.97;;;21.10;99.90;;;;;;5011600;28;20160;-82
2021/08/02 09:47:00;;;;;;;4.40;2.38;;;21.40;99.90;;;;;;5012680;28;20195;-83
2021/08/02 09:49:30;;;;;;;2.67;2.42;;;21.10;99.90;;;;;;5012013;28;20888;-82
2021/08/02 09:51:56;;;;;;;2.28;2.08;;;21.10;99.90;;;;;;5011294;28;20208;-81
2021/08/02 09:54:27;;;;;;;5.43;3.17;;;20.70;99.90;;;;;;5013121;28;20218;-83
2021/08/02 09:56:53;;;;;;;5.70;2.58;;;21.20;99.90;;;;;;5011569;28;20793;-81
2021/08/02 09:59:20;;;;;;;3.97;2.83;;;21.30;99.90;;;;;;5011040;28;20222;-79
2021/08/02 10:01:48;;;;;;;2.60;2.13;;;21.10;99.90;;;;;;5011561;28;20560;-77
2021/08/02 10:04:14;;;;;;;4.07;1.80;;;21.60;99.90;;;;;;5012059;28;20168;-80
2021/08/02 10:06:41;;;;;;;4.30;2.00;;;21.50;99.90;;;;;;5012001;28;20192;-80
2021/08/02 10:09:07;;;;;;;8.40;2.20;;;21.90;99.90;;;;;;5011844;28;20244;-80
2021/08/02 10:11:33;;;;;;;2.92;1.58;;;21.90;99.90;;;;;;5012058;28;20204;-79
2021/08/02 10:13:59;;;;;;;2.85;2.05;;;21.90;99.90;;;;;;5012249;28;20168;-79
2021/08/02 10:16:27;;;;;;;2.63;2.05;;;22.00;99.90;;;;;;5012860;28;20192;-79
2021/08/02 10:19:00;;;;;;;7.57;3.33;;;21.40;99.90;;;;;;5011277;28;20177;-80
2021/08/02 10:21:40;;;;;;;7.47;2.65;;;21.70;99.90;;;;;;5012318;28;20191;-79
2021/08/02 10:24:07;;;;;;;9.77;2.33;;;21.90;99.90;;;;;;5012218;28;20655;-78
2021/08/02 10:26:33;;;;;;;4.72;2.72;;;21.90;99.90;;;;;;5011988;28;20568;-79
2021/08/02 10:29:07;;;;;;;4.07;2.78;;;21.80;99.90;;;;;;5011605;28;20180;-80
2021/08/02 10:31:48;;;;;;;3.47;2.67;;;21.80;99.90;;;;;;5010921;28;20291;-79
2021/08/02 10:34:24;;;;;;;3.63;2.80;;;21.40;99.90;;;;;;5014427;28;20187;-80
2021/08/02 10:37:00;;;;;;;5.18;2.78;;;21.50;99.90;;;;;;5013132;28;20200;-85
2021/08/02 10:39:28;;;;;;;4.97;3.65;;;21.30;99.90;;;;;;5014162;28;20197;-82
2021/08/02 10:42:23;;;;;;;5.63;3.33;;;21.20;99.90;;;;;;5013861;28;20172;-80
2021/08/02 10:44:53;;;;;;;6.00;3.70;;;21.00;99.90;;;;;;5012547;28;20199;-79
2021/08/02 10:47:19;;;;;;;6.65;3.47;;;21.00;99.90;;;;;;5013026;28;20179;-80
2021/08/02 10:49:49;;;;;;;5.95;3.63;;;21.10;99.90;;;;;;5013238;28;20522;-80
2021/08/02 10:52:26;;;;;;;4.82;4.20;;;21.00;99.90;;;;;;5011555;28;20216;-81
2021/08/02 10:54:52;;;;;;;8.73;3.90;;;21.00;99.90;;;;;;5013486;28;20239;-81
2021/08/02 10:57:18;;;;;;;7.65;4.10;;;20.90;99.90;;;;;;5014425;28;20498;-81
2021/08/02 10:59:43;;;;;;;4.50;4.03;;;21.20;99.90;;;;;;5027336;28;20176;-79
2021/08/02 11:02:10;;;;;;;3.30;2.92;;;21.40;99.90;;;;;;5036628;28;20192;-80
2021/08/02 11:04:37;;;;;;;4.43;3.20;;;21.60;99.90;;;;;;5035987;28;20169;-81
2021/08/02 11:07:04;;;;;;;4.75;2.97;;;21.70;99.90;;;;;;5030712;28;20248;-79
2021/08/02 11:09:32;;;;;;;6.72;2.35;;;21.10;99.90;;;;;;5030231;28;20165;-80
2021/08/02 11:12:13;;;;;;;4.68;2.60;;;20.90;99.90;;;;;;5019194;28;20232;-81
2021/08/02 11:14:52;;;;;;;3.38;3.08;;;21.20;99.90;;;;;;5013593;28;20173;-81
2021/08/02 11:17:25;;;;;;;4.22;3.10;;;21.50;99.90;;;;;;5011652;28;20164;-81
2021/08/02 11:20:09;;;;;;;4.90;2.85;;;21.80;99.90;;;;;;5011268;28;20177;-81
2021/08/02 11:22:49;;;;;;;4.90;2.47;;;21.80;99.90;;;;;;5012785;28;20173;-82
2021/08/02 11:25:22;;;;;;;3.65;2.25;;;21.80;99.90;;;;;;5014203;28;20219;-80
2021/08/02 11:27:55;;;;;;;2.70;2.20;;;21.80;99.90;;;;;;5013634;28;20168;-82
2021/08/02 11:30:22;;;;;;;2.47;1.98;;;22.00;99.90;;;;;;5013546;28;20169;-81
2021/08/02 11:32:48;;;;;;;11.02;2.25;;;21.70;99.90;;;;;;5014567;28;20204;-78
2021/08/02 11:35:15;;;;;;;4.22;2.45;;;21.60;99.90;;;;;;5015021;28;20227;-78
2021/08/02 11:37:48;;;;;;;4.70;2.47;;;21.80;99.90;;;;;;5016696;28;20184;-77
2021/08/02 11:40:14;;;;;;;5.05;2.05;;;21.90;99.90;;;;;;5016530;28;20169;-79
2021/08/02 11:42:42;;;;;;;3.03;2.08;;;22.30;99.90;;;;;;5014692;28;20198;-79
2021/08/02 11:45:08;;;;;;;3.78;1.92;;;22.30;99.90;;;;;;5016350;28;20197;-78
2021/08/02 11:47:42;;;;;;;3.13;1.98;;;22.30;99.90;;;;;;5015223;28;20567;-78
2021/08/02 11:50:08;;;;;;;8.13;2.38;;;22.30;99.90;;;;;;5016447;28;20170;-80
2021/08/02 11:52:34;;;;;;;2.53;1.60;;;22.70;99.90;;;;;;5018204;28;20208;-84
2021/08/02 11:55:04;;;;;;;5.82;2.40;;;23.00;99.90;;;;;;5019466;28;20175;-85
2021/08/02 11:57:30;;;;;;;2.08;1.85;;;22.80;99.90;;;;;;5014042;28;20258;-79
2021/08/02 11:59:59;;;;;;;4.35;2.05;;;23.00;99.90;;;;;;5015564;28;20169;-78
2021/08/02 12:02:39;;;;;;;6.30;2.78;;;23.40;99.90;;;;;;5016112;28;20182;-80
2021/08/02 12:05:08;;;;;;;2.55;2.22;;;23.20;99.90;;;;;;5016766;28;20571;-84
2021/08/02 12:07:33;;;;;;;2.35;2.15;;;22.70;99.90;;;;;;5016436;28;20175;-78
2021/08/02 12:10:17;;;;;;;2.10;1.90;;;22.90;99.90;;;;;;5016245;28;20177;-79
2021/08/02 12:12:57;;;;;;;2.80;2.05;;;23.10;99.90;;;;;;5015684;28;20707;-81
2021/08/02 12:15:22;;;;;;;7.72;2.00;;;22.40;99.90;;;;;;5015277;28;20189;-82
2021/08/02 12:17:53;;;;;;;3.15;2.13;;;21.90;99.90;;;;;;5015948;28;20177;-83
2021/08/02 12:20:39;;;;;;;13.52;1.70;;;21.80;99.90;;;;;;5016150;28;20164;-87
2021/08/02 12:23:08;;;;;;;7.28;2.03;;;22.10;99.90;;;;;;5016464;28;20506;-84
2021/08/02 12:25:47;;;;;;;1.75;1.58;;;22.60;99.90;;;;;;5016296;28;20295;-79
2021/08/02 12:28:14;;;;;;;3.47;1.67;;;23.00;99.90;;;;;;5014993;28;20192;-87
2021/08/02 12:30:43;;;;;;;8.60;2.08;;;23.00;99.90;;;;;;5015854;28;20598;-92
2021/08/02 12:33:11;;;;;;;3.45;1.92;;;23.40;99.90;;;;;;5013417;28;20322;-82
2021/08/02 12:35:37;;;;;;;2.67;1.58;;;23.10;99.90;;;;;;5014191;28;20287;-81
2021/08/02 12:38:05;;;;;;;3.55;2.25;;;22.80;99.90;;;;;;5015086;28;20235;-79
2021/08/02 12:40:31;;;;;;;1.83;1.58;;;22.30;99.90;;;;;;5016173;28;20202;-87
2021/08/02 12:42:59;;;;;;;5.72;1.80;;;22.40;99.90;;;;;;5013468;28;20305;-82
2021/08/02 12:45:25;;;;;;;6.18;1.63;;;22.90;99.90;;;;;;5014211;28;20668;-88
2021/08/02 12:47:52;;;;;;;2.00;1.58;;;23.20;99.90;;;;;;5014794;28;20176;-84
2021/08/02 12:50:20;;;;;;;2.30;1.95;;;23.20;99.90;;;;;;5015715;28;20243;-84
2021/08/02 12:52:48;;;;;;;2.15;2.05;;;23.20;99.90;;;;;;5014338;28;20212;-80